Terminal Aerodrome Forecast
Issued by NWS

Home | Current Version | Previous Version | Text Only | Print | Product List | Glossary On
Versions: 1 2 3 4 5 6 7 8 9 10 11 12 13 14 15 16 17 18 19 20 21 22 23
142
FTUS41 KBGM 111738
TAFRME
TAF
KRME 111738Z 1118/1218 28018KT 2SM -SN BLSN SCT015 OVC035
      TEMPO 1118/1121 1/2SM -SHSN BLSN OVC015
     FM120200 30012KT P6SM -SHSN BKN040
     FM120500 VRB04KT P6SM SCT040
      TEMPO 1208/1211 2SM -SHSN OVC040
     FM121200 15006KT P6SM SCT040 BKN250=

USA.gov is the U.S. government's official web portal to all federal, state and local government web resources and services.